Terminal Aerodrome Forecast
Issued by NWS Jackson, MS

Home | Current Version | Previous Version | Text Only | Print | Product List | Glossary On
Versions: 1 2 3 4 5 6 7 8 9 10 11 12 13 14 15 16 17 18
043
FTUS44 KJAN 041720
TAFMEI
TAF
KMEI 041720Z 0418/0518 32013G20KT P6SM FEW050
     FM050100 28006KT P6SM SCT050 SCT100
     FM051500 34012G20KT P6SM SKC=

USA.gov is the U.S. government's official web portal to all federal, state and local government web resources and services.